Time;durP1;ratioP1;P1;durP2;ratioP2;P2;SDS_P1;SDS_P2;PMS_P1;PMS_P2;Temp;Humidity;BMP_temperature;BMP_pressure;BME280_temperature;BME280_humidity;BME280_pressure;Samples;Min_cycle;Max_cycle;Signal;HPM_P1;HPM_P2
2023/08/12 00:00:50;;;;;;;6.38;3.03;;;15.00;99.90;;;;;;5111420;28;20023;-76
2023/08/12 00:03:16;;;;;;;4.10;2.95;;;15.00;99.90;;;;;;5091880;28;20036;-76
2023/08/12 00:05:42;;;;;;;4.57;2.42;;;15.00;99.90;;;;;;5109622;28;20036;-76
2023/08/12 00:08:08;;;;;;;3.65;2.60;;;14.90;99.90;;;;;;5091344;28;20028;-76
2023/08/12 00:10:34;;;;;;;5.53;2.88;;;14.90;99.90;;;;;;5108806;28;20479;-76
2023/08/12 00:12:59;;;;;;;3.03;2.53;;;14.90;99.90;;;;;;5111561;28;20023;-76
2023/08/12 00:15:25;;;;;;;3.40;3.10;;;14.90;99.90;;;;;;5086531;28;20044;-76
2023/08/12 00:17:52;;;;;;;4.75;3.00;;;14.90;99.90;;;;;;5110682;28;20036;-76
2023/08/12 00:20:17;;;;;;;4.38;2.63;;;14.80;99.90;;;;;;5091352;28;20032;-75
2023/08/12 00:22:43;;;;;;;4.57;3.03;;;14.80;99.90;;;;;;5110641;28;20380;-75
2023/08/12 00:25:09;;;;;;;4.72;2.85;;;14.90;99.90;;;;;;5085271;28;20024;-60
2023/08/12 00:27:34;;;;;;;3.90;2.85;;;14.80;99.90;;;;;;5092556;28;20036;-61
2023/08/12 00:30:00;;;;;;;4.53;2.75;;;14.80;99.90;;;;;;5109004;28;20035;-60
2023/08/12 00:32:26;;;;;;;3.75;3.03;;;14.80;99.90;;;;;;5089904;28;20133;-61
2023/08/12 00:34:51;;;;;;;5.18;3.13;;;14.80;99.90;;;;;;5093620;28;20031;-61
2023/08/12 00:37:16;;;;;;;3.38;2.97;;;14.80;99.90;;;;;;5088015;28;20504;-61
2023/08/12 00:39:42;;;;;;;3.28;2.97;;;14.80;99.90;;;;;;5080364;28;20040;-61
2023/08/12 00:42:08;;;;;;;3.38;3.00;;;14.70;99.90;;;;;;5073581;28;20565;-61
2023/08/12 00:44:33;;;;;;;4.95;2.72;;;14.70;99.90;;;;;;5083934;28;20028;-61
2023/08/12 00:46:59;;;;;;;4.25;2.65;;;14.70;99.90;;;;;;5083667;28;20107;-60
2023/08/12 00:49:26;;;;;;;3.35;3.05;;;14.70;99.90;;;;;;5095564;28;20035;-60
2023/08/12 00:51:52;;;;;;;3.53;3.13;;;14.80;99.90;;;;;;5076407;28;20116;-60
2023/08/12 00:54:21;;;;;;;5.15;3.00;;;14.70;99.90;;;;;;5099191;28;20484;-61
2023/08/12 00:56:48;;;;;;;9.52;3.40;;;14.80;99.90;;;;;;5085565;28;20082;-62
2023/08/12 00:59:14;;;;;;;3.80;3.50;;;14.80;99.90;;;;;;5094721;28;20496;-62
2023/08/12 01:01:44;;;;;;;5.68;3.83;;;14.80;99.90;;;;;;5110049;28;20111;-61
2023/08/12 01:04:10;;;;;;;5.72;3.30;;;14.80;99.90;;;;;;5083480;28;20031;-60
2023/08/12 01:06:36;;;;;;;3.90;3.22;;;14.80;99.90;;;;;;5098431;28;20056;-61
2023/08/12 01:09:05;;;;;;;3.95;3.40;;;14.80;99.90;;;;;;5091665;28;20449;-61
2023/08/12 01:11:45;;;;;;;8.45;3.55;;;14.90;99.90;;;;;;5100991;28;20029;-61
2023/08/12 01:14:36;;;;;;;4.03;3.58;;;14.90;99.90;;;;;;5081989;28;20068;-60
2023/08/12 01:17:07;;;;;;;4.25;2.90;;;14.90;99.90;;;;;;5110248;28;20052;-62
2023/08/12 01:19:38;;;;;;;4.68;3.38;;;15.00;99.90;;;;;;5069893;28;20052;-61
2023/08/12 01:22:06;;;;;;;3.05;2.65;;;15.00;99.90;;;;;;5075633;28;20033;-61
2023/08/12 01:24:39;;;;;;;4.35;2.97;;;15.10;99.90;;;;;;5099109;28;20055;-62
2023/08/12 01:27:05;;;;;;;3.97;2.88;;;15.00;99.90;;;;;;5079168;28;20085;-61
2023/08/12 01:29:32;;;;;;;4.50;3.13;;;15.00;99.90;;;;;;5090862;28;20047;-61
2023/08/12 01:32:35;;;;;;;4.13;2.97;;;15.00;99.90;;;;;;5103452;28;20101;-61
2023/08/12 01:35:05;;;;;;;3.40;3.00;;;15.00;99.90;;;;;;5084061;28;20040;-61
2023/08/12 01:37:32;;;;;;;5.63;3.17;;;15.00;99.90;;;;;;5094801;28;20513;-62
2023/08/12 01:40:00;;;;;;;4.28;3.20;;;15.00;99.90;;;;;;5100694;28;20111;-62
2023/08/12 01:42:28;;;;;;;2.90;2.70;;;15.00;99.90;;;;;;5098581;28;20112;-61
2023/08/12 01:44:54;;;;;;;4.45;2.80;;;15.00;99.90;;;;;;5093348;28;20036;-62
2023/08/12 01:47:19;;;;;;;3.67;3.17;;;15.00;99.90;;;;;;5077553;28;20032;-61
2023/08/12 01:49:45;;;;;;;5.18;3.50;;;14.90;99.90;;;;;;5089269;28;20032;-61
2023/08/12 01:52:10;;;;;;;5.25;2.92;;;14.90;99.90;;;;;;5090711;28;20025;-60
2023/08/12 01:54:36;;;;;;;4.40;3.17;;;14.90;99.90;;;;;;5090923;28;20123;-60
2023/08/12 01:57:05;;;;;;;3.88;3.13;;;14.90;99.90;;;;;;5094855;28;20166;-61
2023/08/12 01:59:34;;;;;;;4.05;3.20;;;14.80;99.90;;;;;;5095911;28;20064;-60
2023/08/12 02:01:59;;;;;;;4.32;3.60;;;14.80;99.90;;;;;;5109160;28;20111;-61
2023/08/12 02:04:26;;;;;;;6.47;3.78;;;14.80;99.90;;;;;;5100543;28;20453;-61
2023/08/12 02:06:52;;;;;;;8.45;3.92;;;14.80;99.90;;;;;;5107124;28;20025;-60
2023/08/12 02:09:17;;;;;;;4.38;3.20;;;14.70;99.90;;;;;;5099876;28;20073;-61
2023/08/12 02:11:43;;;;;;;3.58;2.80;;;14.70;99.90;;;;;;5109319;28;20039;-60
2023/08/12 02:14:08;;;;;;;3.50;3.20;;;14.60;99.90;;;;;;5106064;28;20020;-61
2023/08/12 02:16:34;;;;;;;4.45;3.22;;;14.60;99.90;;;;;;5104277;28;20036;-60
2023/08/12 02:18:59;;;;;;;4.72;3.42;;;14.60;99.90;;;;;;5091130;28;20043;-60
2023/08/12 02:21:25;;;;;;;3.97;3.53;;;14.60;99.90;;;;;;5112237;28;20016;-61
2023/08/12 02:23:51;;;;;;;5.90;3.38;;;14.60;99.90;;;;;;5090245;28;20028;-61
2023/08/12 02:26:16;;;;;;;3.80;3.40;;;14.50;99.90;;;;;;5075462;28;20035;-61
2023/08/12 02:28:42;;;;;;;5.47;3.58;;;14.50;99.90;;;;;;5091423;28;20031;-61
2023/08/12 02:31:07;;;;;;;4.35;3.13;;;14.50;99.90;;;;;;5085093;28;20071;-61
2023/08/12 02:33:32;;;;;;;5.03;3.78;;;14.40;99.90;;;;;;5112031;28;20035;-61
2023/08/12 02:35:58;;;;;;;5.00;3.70;;;14.40;99.90;;;;;;5093585;28;20029;-61
2023/08/12 02:38:23;;;;;;;3.72;3.33;;;14.40;99.90;;;;;;5095406;28;20792;-61
2023/08/12 02:40:50;;;;;;;6.03;4.00;;;14.40;99.90;;;;;;5075619;28;20032;-61
2023/08/12 02:43:18;;;;;;;4.50;3.25;;;14.40;99.90;;;;;;5096618;28;20058;-61
2023/08/12 02:45:44;;;;;;;7.35;3.70;;;14.40;99.90;;;;;;5098173;28;20028;-61
2023/08/12 02:48:11;;;;;;;4.70;3.72;;;14.40;99.90;;;;;;5112451;28;20024;-61
2023/08/12 02:50:37;;;;;;;4.63;4.05;;;14.40;99.90;;;;;;5078543;28;20111;-61
2023/08/12 02:53:02;;;;;;;4.40;3.50;;;14.40;99.90;;;;;;5085278;28;20150;-62
2023/08/12 02:55:28;;;;;;;4.10;3.70;;;14.40;99.90;;;;;;5075582;28;20462;-61
2023/08/12 02:57:54;;;;;;;7.15;4.47;;;14.40;99.90;;;;;;5081304;28;20019;-62
2023/08/12 03:00:20;;;;;;;5.55;3.80;;;14.40;99.90;;;;;;5112149;28;20118;-61
2023/08/12 03:02:45;;;;;;;5.80;3.45;;;14.40;99.90;;;;;;5091608;28;20154;-61
2023/08/12 03:05:11;;;;;;;5.38;3.63;;;14.40;99.90;;;;;;5111950;28;20114;-61
2023/08/12 03:07:36;;;;;;;5.43;4.35;;;14.40;99.90;;;;;;5086403;28;20028;-61
2023/08/12 03:10:02;;;;;;;4.40;3.90;;;14.40;99.90;;;;;;5080178;28;20048;-62
2023/08/12 03:12:27;;;;;;;5.20;3.85;;;14.40;99.90;;;;;;5101941;28;20113;-61
2023/08/12 03:14:53;;;;;;;4.80;3.63;;;14.40;99.90;;;;;;5091255;28;20118;-61
2023/08/12 03:17:18;;;;;;;4.95;3.80;;;14.40;99.90;;;;;;5093922;28;20035;-61
2023/08/12 03:19:44;;;;;;;4.55;3.72;;;14.40;99.90;;;;;;5111819;28;20055;-61
2023/08/12 03:22:09;;;;;;;5.43;4.55;;;14.40;99.90;;;;;;5086022;28;20025;-61
2023/08/12 03:24:35;;;;;;;4.97;4.38;;;14.50;99.90;;;;;;5099918;28;20028;-60
2023/08/12 03:27:00;;;;;;;8.20;4.20;;;14.50;99.90;;;;;;5097622;28;20063;-61
2023/08/12 03:29:26;;;;;;;5.03;3.53;;;14.60;99.90;;;;;;5089355;28;20036;-61
2023/08/12 03:31:51;;;;;;;4.90;4.07;;;14.60;99.90;;;;;;5080433;28;20044;-61
2023/08/12 03:34:17;;;;;;;5.25;3.75;;;14.60;99.90;;;;;;5073650;28;20051;-61
2023/08/12 03:36:42;;;;;;;5.05;3.75;;;14.60;99.90;;;;;;5102571;28;20028;-61
2023/08/12 03:39:08;;;;;;;4.82;3.53;;;14.60;99.90;;;;;;5096516;28;20051;-64
2023/08/12 03:41:34;;;;;;;5.03;4.40;;;14.60;99.90;;;;;;5093189;28;20036;-63
2023/08/12 03:43:59;;;;;;;6.55;4.05;;;14.70;99.90;;;;;;5090610;28;20380;-63
2023/08/12 03:46:25;;;;;;;7.80;4.45;;;14.70;99.90;;;;;;5087019;28;20032;-64
2023/08/12 03:48:50;;;;;;;5.53;4.07;;;14.70;99.90;;;;;;5110606;28;20031;-63
2023/08/12 03:51:16;;;;;;;4.68;4.00;;;14.70;99.90;;;;;;5081977;28;20036;-64
2023/08/12 03:53:41;;;;;;;4.35;3.95;;;14.80;99.90;;;;;;5088414;28;20029;-62
2023/08/12 03:56:07;;;;;;;5.38;4.45;;;14.80;99.90;;;;;;5088880;28;20446;-64
2023/08/12 03:58:32;;;;;;;5.78;4.40;;;14.70;99.90;;;;;;5100594;28;20035;-63
2023/08/12 04:00:58;;;;;;;4.45;3.83;;;14.80;99.90;;;;;;5093292;28;20500;-64
2023/08/12 04:03:24;;;;;;;4.43;4.03;;;14.80;99.90;;;;;;5083797;28;20044;-63
2023/08/12 04:05:52;;;;;;;7.75;4.63;;;14.90;99.90;;;;;;5074633;28;20032;-63
2023/08/12 04:08:22;;;;;;;4.32;3.92;;;14.90;99.90;;;;;;5085565;28;20487;-62
2023/08/12 04:10:47;;;;;;;6.07;4.90;;;15.00;99.90;;;;;;5103158;28;20036;-64
2023/08/12 04:13:14;;;;;;;5.90;4.72;;;15.10;99.90;;;;;;5091169;28;20412;-63
2023/08/12 04:15:40;;;;;;;5.05;4.50;;;15.10;99.90;;;;;;5089352;28;20028;-60
2023/08/12 04:18:06;;;;;;;4.88;4.45;;;15.20;99.90;;;;;;5093261;28;20027;-60
2023/08/12 04:20:31;;;;;;;5.10;4.35;;;15.30;99.90;;;;;;5105353;28;20114;-61
2023/08/12 04:22:57;;;;;;;6.15;4.65;;;15.30;99.90;;;;;;5095473;28;20115;-61
2023/08/12 04:25:23;;;;;;;5.57;4.40;;;15.50;99.90;;;;;;5092471;28;20024;-63
2023/08/12 04:27:49;;;;;;;5.97;4.47;;;15.50;99.90;;;;;;5094909;28;20074;-63
2023/08/12 04:30:16;;;;;;;7.38;4.60;;;15.60;99.90;;;;;;5082713;28;20031;-63
2023/08/12 04:32:41;;;;;;;5.47;4.30;;;15.70;99.90;;;;;;5071571;28;20279;-63
2023/08/12 04:35:08;;;;;;;5.13;4.10;;;16.00;99.90;;;;;;5093088;28;20040;-63
2023/08/12 04:37:33;;;;;;;4.95;4.25;;;16.60;99.90;;;;;;5080456;28;20432;-63
2023/08/12 04:39:59;;;;;;;7.85;4.13;;;17.30;99.90;;;;;;5103647;28;20074;-63
2023/08/12 04:42:24;;;;;;;5.32;3.75;;;18.10;99.90;;;;;;5097581;28;20519;-63
2023/08/12 04:44:50;;;;;;;4.35;3.60;;;18.70;98.10;;;;;;5099507;28;20107;-63
2023/08/12 04:47:15;;;;;;;7.60;3.80;;;19.40;93.60;;;;;;5110061;28;20444;-63
2023/08/12 04:49:41;;;;;;;3.85;3.42;;;20.00;93.10;;;;;;5090894;28;20063;-63
2023/08/12 04:52:06;;;;;;;3.60;3.30;;;20.50;91.40;;;;;;5092581;28;20568;-62
2023/08/12 04:54:33;;;;;;;6.38;3.28;;;21.10;90.30;;;;;;5086653;28;20024;-62
2023/08/12 04:56:59;;;;;;;4.00;3.20;;;21.60;87.50;;;;;;5084536;28;20045;-62
2023/08/12 04:59:25;;;;;;;4.25;2.78;;;22.20;85.00;;;;;;5096540;28;20111;-63
2023/08/12 05:01:50;;;;;;;5.65;3.22;;;22.70;83.30;;;;;;5085252;28;20111;-62
2023/08/12 05:04:16;;;;;;;4.07;3.00;;;23.00;80.00;;;;;;5078907;28;20083;-62
2023/08/12 05:06:41;;;;;;;4.38;3.17;;;23.50;77.40;;;;;;5098292;28;20024;-62
2023/08/12 05:09:08;;;;;;;3.25;2.72;;;24.00;75.20;;;;;;5106935;28;20491;-62
2023/08/12 05:11:33;;;;;;;2.85;2.50;;;24.30;72.80;;;;;;5087634;28;20047;-62
2023/08/12 05:13:59;;;;;;;5.22;3.20;;;24.80;65.30;;;;;;5096477;28;20039;-61
2023/08/12 05:16:24;;;;;;;3.35;2.55;;;25.30;68.30;;;;;;5087643;28;20468;-61
2023/08/12 05:18:50;;;;;;;3.05;2.63;;;25.70;66.90;;;;;;5100204;28;20536;-62
2023/08/12 05:21:15;;;;;;;2.67;2.45;;;26.10;64.80;;;;;;5100840;28;20028;-62
2023/08/12 05:23:41;;;;;;;3.65;2.40;;;26.70;60.30;;;;;;5106076;28;20031;-61
2023/08/12 05:26:06;;;;;;;2.67;2.05;;;27.10;59.00;;;;;;5070060;28;20025;-60
2023/08/12 05:28:32;;;;;;;3.65;2.40;;;27.70;55.30;;;;;;5071615;28;20060;-61
2023/08/12 05:30:57;;;;;;;2.72;2.40;;;28.10;57.70;;;;;;5101970;28;20078;-61
2023/08/12 05:33:23;;;;;;;2.78;2.45;;;28.70;53.50;;;;;;5086300;28;20037;-61
2023/08/12 05:35:49;;;;;;;3.92;2.22;;;28.30;52.90;;;;;;5085185;28;20068;-61
2023/08/12 05:38:14;;;;;;;3.75;2.72;;;27.60;51.30;;;;;;5095226;28;20392;-61
2023/08/12 05:40:41;;;;;;;2.65;2.45;;;27.00;50.60;;;;;;5093004;28;20700;-62
2023/08/12 05:43:06;;;;;;;2.60;2.30;;;26.40;53.50;;;;;;5094576;28;20466;-61
2023/08/12 05:45:32;;;;;;;5.75;2.58;;;25.90;54.10;;;;;;5095873;28;20021;-62
2023/08/12 05:47:57;;;;;;;3.30;2.58;;;25.60;55.20;;;;;;5097873;28;20040;-61
2023/08/12 05:50:23;;;;;;;3.88;2.85;;;25.20;55.70;;;;;;5090152;28;20051;-61
2023/08/12 05:52:48;;;;;;;2.47;2.28;;;25.00;55.90;;;;;;5112973;28;20407;-62
2023/08/12 05:55:14;;;;;;;4.25;2.80;;;25.00;56.00;;;;;;5087686;28;20052;-62
2023/08/12 05:57:39;;;;;;;3.92;2.55;;;24.80;55.80;;;;;;5103152;28;20502;-64
2023/08/12 06:00:07;;;;;;;3.28;2.28;;;25.40;55.70;;;;;;5100344;28;20028;-62
2023/08/12 06:02:32;;;;;;;4.30;2.65;;;26.50;53.90;;;;;;5091715;28;20138;-62
2023/08/12 06:04:58;;;;;;;5.03;2.47;;;27.30;51.90;;;;;;5075261;28;20107;-62
2023/08/12 06:07:23;;;;;;;3.95;2.20;;;27.90;46.80;;;;;;5091492;28;20031;-62
2023/08/12 06:09:50;;;;;;;3.88;2.30;;;29.00;48.30;;;;;;5085686;28;20115;-61
2023/08/12 06:12:16;;;;;;;2.83;2.50;;;30.20;46.90;;;;;;5102621;28;20020;-61
2023/08/12 06:14:41;;;;;;;2.70;2.10;;;31.30;43.50;;;;;;5087376;28;20107;-61
2023/08/12 06:17:07;;;;;;;2.30;1.98;;;32.70;38.20;;;;;;5106244;28;20035;-62
2023/08/12 06:19:33;;;;;;;3.10;2.38;;;33.00;38.00;;;;;;5079064;28;20489;-62
2023/08/12 06:21:58;;;;;;;4.15;2.05;;;32.20;35.00;;;;;;5096723;28;20473;-62
2023/08/12 06:24:24;;;;;;;3.08;2.58;;;31.20;34.90;;;;;;5092732;28;20038;-61
2023/08/12 06:26:49;;;;;;;5.13;2.30;;;30.30;36.00;;;;;;5095890;28;20506;-61
2023/08/12 06:29:15;;;;;;;3.20;2.17;;;29.50;37.00;;;;;;5113051;28;20026;-61
2023/08/12 06:31:40;;;;;;;4.32;2.22;;;29.10;37.20;;;;;;5093056;28;20124;-61
2023/08/12 06:34:06;;;;;;;4.20;2.00;;;28.70;38.10;;;;;;5076642;28;20043;-60
2023/08/12 06:36:31;;;;;;;5.10;2.45;;;28.40;38.00;;;;;;5101291;28;20028;-61
2023/08/12 06:38:57;;;;;;;2.75;2.38;;;28.10;38.30;;;;;;5097538;28;20032;-62
2023/08/12 06:41:22;;;;;;;3.80;2.45;;;28.00;36.90;;;;;;5074751;28;20029;-61
2023/08/12 06:43:48;;;;;;;3.10;2.25;;;28.10;37.20;;;;;;5084780;28;20043;-61
2023/08/12 06:46:13;;;;;;;2.70;2.50;;;28.10;39.00;;;;;;5101248;28;20476;-61
2023/08/12 06:48:39;;;;;;;3.10;2.55;;;28.70;38.60;;;;;;5092770;28;20499;-61
2023/08/12 06:51:10;;;;;;;2.53;2.20;;;29.00;37.90;;;;;;5108248;28;20032;-61
2023/08/12 06:53:36;;;;;;;4.10;2.90;;;28.90;38.00;;;;;;5077656;28;20028;-61
2023/08/12 06:56:01;;;;;;;2.72;2.20;;;28.90;36.20;;;;;;5110701;28;20035;-61
2023/08/12 06:58:27;;;;;;;3.38;2.55;;;29.10;37.00;;;;;;5092553;28;20028;-61
2023/08/12 07:00:53;;;;;;;3.63;2.25;;;29.50;36.80;;;;;;5102008;28;20407;-62
2023/08/12 07:03:19;;;;;;;4.22;2.15;;;29.90;36.30;;;;;;5084882;28;20040;-62
2023/08/12 07:05:44;;;;;;;2.42;2.10;;;30.20;35.50;;;;;;5092823;28;20586;-63
2023/08/12 07:08:10;;;;;;;5.55;2.38;;;30.10;35.00;;;;;;5087968;28;20508;-62
2023/08/12 07:10:39;;;;;;;5.40;2.50;;;29.90;35.30;;;;;;5091191;28;20508;-62
2023/08/12 07:13:05;;;;;;;3.75;2.38;;;29.50;35.60;;;;;;5096223;28;20031;-61
2023/08/12 07:15:30;;;;;;;2.85;2.08;;;29.10;36.30;;;;;;5084983;28;20025;-62
2023/08/12 07:17:57;;;;;;;2.90;2.35;;;28.90;36.90;;;;;;5077872;28;20028;-61
2023/08/12 07:20:23;;;;;;;2.70;2.50;;;28.60;37.10;;;;;;5093632;28;20028;-62
2023/08/12 07:22:49;;;;;;;4.32;2.40;;;28.40;37.00;;;;;;5081386;28;20032;-62
2023/08/12 07:25:15;;;;;;;3.67;2.88;;;28.30;37.60;;;;;;5073472;28;20025;-62
2023/08/12 07:27:40;;;;;;;5.60;2.58;;;28.70;37.60;;;;;;5087642;28;20024;-61
2023/08/12 07:30:07;;;;;;;2.47;2.28;;;29.10;36.90;;;;;;5106947;28;20102;-62
2023/08/12 07:32:33;;;;;;;2.30;2.10;;;29.40;36.60;;;;;;5087530;28;20035;-62
2023/08/12 07:34:59;;;;;;;4.72;2.40;;;29.50;36.30;;;;;;5091488;28;20028;-62
2023/08/12 07:37:25;;;;;;;2.63;2.42;;;29.70;36.10;;;;;;5099455;28;20035;-60
2023/08/12 07:39:50;;;;;;;2.97;2.63;;;29.60;35.80;;;;;;5099130;28;20415;-61
2023/08/12 07:42:16;;;;;;;5.28;2.53;;;29.60;36.00;;;;;;5111651;28;20043;-61
2023/08/12 07:44:41;;;;;;;6.53;2.85;;;29.70;36.10;;;;;;5091242;28;20060;-62
2023/08/12 07:47:07;;;;;;;4.30;2.75;;;29.70;35.00;;;;;;5104626;28;20584;-62
2023/08/12 07:49:32;;;;;;;7.05;2.30;;;29.60;35.30;;;;;;5099968;28;20509;-62
2023/08/12 07:51:58;;;;;;;4.00;2.53;;;30.10;34.70;;;;;;5091750;28;20020;-62
2023/08/12 07:54:23;;;;;;;4.45;2.80;;;31.30;33.80;;;;;;5111425;28;20032;-61
2023/08/12 07:56:49;;;;;;;2.88;2.45;;;32.70;31.40;;;;;;5087552;28;20454;-62
2023/08/12 07:59:15;;;;;;;5.32;2.50;;;33.20;27.40;;;;;;5095452;28;20023;-61
2023/08/12 08:01:41;;;;;;;2.50;2.13;;;32.90;28.60;;;;;;5096712;28;20024;-61
2023/08/12 08:04:07;;;;;;;2.30;2.10;;;33.20;29.50;;;;;;5089158;28;20081;-62
2023/08/12 08:06:32;;;;;;;3.58;2.40;;;33.60;28.30;;;;;;5104109;28;20024;-62
2023/08/12 08:08:58;;;;;;;2.53;2.22;;;34.00;27.80;;;;;;5092002;28;20055;-61
2023/08/12 08:11:24;;;;;;;3.17;2.35;;;33.80;27.70;;;;;;5105534;28;20103;-61
2023/08/12 08:13:50;;;;;;;2.83;2.03;;;33.80;27.60;;;;;;5093230;28;20099;-61
2023/08/12 08:16:15;;;;;;;4.57;2.22;;;33.50;27.30;;;;;;5076063;28;20544;-61
2023/08/12 08:18:41;;;;;;;3.72;2.08;;;33.30;27.10;;;;;;5100750;28;20564;-61
2023/08/12 08:21:06;;;;;;;4.50;2.38;;;32.90;26.70;;;;;;5104012;28;20020;-61
2023/08/12 08:23:32;;;;;;;3.60;2.78;;;32.10;26.50;;;;;;5073250;28;20028;-54
2023/08/12 08:25:57;;;;;;;4.07;2.92;;;31.40;27.10;;;;;;5072171;28;20435;-54
2023/08/12 08:28:23;;;;;;;3.97;2.13;;;31.10;27.70;;;;;;5088095;28;20027;-54
2023/08/12 08:30:49;;;;;;;2.60;2.40;;;30.80;28.10;;;;;;5100215;28;20127;-54
2023/08/12 08:33:14;;;;;;;3.60;2.10;;;30.90;28.20;;;;;;5074465;28;20476;-55
2023/08/12 08:35:40;;;;;;;2.17;1.83;;;31.30;28.40;;;;;;5107852;28;20604;-53
2023/08/12 08:38:05;;;;;;;3.55;2.30;;;32.00;28.00;;;;;;5090862;28;20065;-56
2023/08/12 08:40:31;;;;;;;3.10;2.05;;;32.30;26.80;;;;;;5103261;28;20090;-56
2023/08/12 08:42:59;;;;;;;3.42;2.40;;;32.50;26.50;;;;;;5097897;28;20031;-55
2023/08/12 08:45:25;;;;;;;2.58;2.10;;;32.90;26.00;;;;;;5093776;28;20055;-56
2023/08/12 08:47:52;;;;;;;3.40;2.13;;;32.70;25.70;;;;;;5101462;28;20028;-57
2023/08/12 08:50:18;;;;;;;2.55;2.10;;;32.60;25.60;;;;;;5085778;28;20032;-57
2023/08/12 08:52:44;;;;;;;7.25;2.63;;;32.60;26.00;;;;;;5090907;28;20110;-56
2023/08/12 08:55:10;;;;;;;4.25;2.90;;;31.80;25.10;;;;;;5074503;28;20114;-55
2023/08/12 08:57:37;;;;;;;3.65;3.00;;;31.20;26.10;;;;;;5080208;28;20031;-56
2023/08/12 09:00:07;;;;;;;2.60;2.40;;;30.50;26.80;;;;;;5073975;28;20089;-54
2023/08/12 09:02:33;;;;;;;3.28;2.35;;;30.30;27.10;;;;;;5098495;28;20028;-54
2023/08/12 09:04:59;;;;;;;3.28;2.55;;;30.00;27.70;;;;;;5095385;28;20081;-56
2023/08/12 09:07:25;;;;;;;3.70;2.53;;;29.90;28.20;;;;;;5096636;28;20089;-52
2023/08/12 09:09:53;;;;;;;2.72;2.42;;;29.70;28.10;;;;;;5072280;28;20028;-55
2023/08/12 09:12:20;;;;;;;3.55;2.58;;;29.60;28.10;;;;;;5093710;28;20476;-55
2023/08/12 09:14:46;;;;;;;5.63;2.42;;;29.50;28.30;;;;;;5096620;28;20103;-55
2023/08/12 09:17:11;;;;;;;3.75;2.50;;;29.30;28.40;;;;;;5093865;28;20124;-55
2023/08/12 09:19:37;;;;;;;2.70;2.20;;;29.10;28.90;;;;;;5092966;28;20036;-53
2023/08/12 09:22:07;;;;;;;2.38;2.17;;;28.80;29.30;;;;;;5090151;28;20377;-56
2023/08/12 09:24:32;;;;;;;3.78;2.58;;;28.60;30.20;;;;;;5097891;28;20081;-55
2023/08/12 09:26:58;;;;;;;3.08;2.72;;;28.30;30.60;;;;;;5094397;28;20099;-54
2023/08/12 09:29:28;;;;;;;3.90;2.63;;;28.00;31.90;;;;;;5078662;28;20055;-54
2023/08/12 09:31:54;;;;;;;4.00;2.97;;;27.70;33.00;;;;;;5087374;28;20047;-56
2023/08/12 09:34:20;;;;;;;4.13;2.50;;;27.50;34.10;;;;;;5090502;28;20047;-55
2023/08/12 09:36:46;;;;;;;3.13;2.45;;;27.40;34.90;;;;;;5103219;28;20443;-54
2023/08/12 09:39:13;;;;;;;3.65;2.40;;;27.30;35.40;;;;;;5093966;28;20028;-51
2023/08/12 09:41:41;;;;;;;4.43;2.72;;;27.40;35.60;;;;;;5110499;28;20027;-55
2023/08/12 09:44:07;;;;;;;3.20;2.42;;;27.40;35.90;;;;;;5090317;28;20024;-55
2023/08/12 09:46:33;;;;;;;4.50;2.63;;;27.40;36.40;;;;;;5091362;28;20032;-59
2023/08/12 09:48:59;;;;;;;3.25;2.95;;;27.40;37.20;;;;;;5080571;28;20050;-60
2023/08/12 09:51:25;;;;;;;2.60;2.40;;;27.50;37.80;;;;;;5108768;28;20088;-59
2023/08/12 09:53:51;;;;;;;3.63;2.42;;;27.80;38.00;;;;;;5090098;28;20589;-60
2023/08/12 09:56:23;;;;;;;3.67;2.80;;;28.10;37.30;;;;;;5109394;28;20039;-60
2023/08/12 09:58:49;;;;;;;3.05;2.35;;;28.30;37.40;;;;;;5087461;28;20040;-59
2023/08/12 10:01:20;;;;;;;5.32;3.15;;;28.50;36.50;;;;;;5108034;28;20108;-59
2023/08/12 10:03:49;;;;;;;3.60;2.75;;;28.80;35.90;;;;;;5069563;28;20032;-59
2023/08/12 10:06:15;;;;;;;2.53;2.33;;;29.10;35.60;;;;;;5109401;28;20028;-59
2023/08/12 10:08:41;;;;;;;6.35;2.78;;;29.50;35.20;;;;;;5074919;28;20111;-60
2023/08/12 10:11:07;;;;;;;5.80;2.72;;;29.70;33.90;;;;;;5108675;28;20453;-59
2023/08/12 10:13:33;;;;;;;4.05;2.90;;;30.10;33.60;;;;;;5089908;28;20107;-60
2023/08/12 10:16:00;;;;;;;2.90;2.58;;;30.10;33.50;;;;;;5105039;28;20051;-60
2023/08/12 10:18:29;;;;;;;4.35;2.60;;;30.00;33.30;;;;;;5091197;27;20074;-60
2023/08/12 10:20:58;;;;;;;3.85;3.05;;;29.90;33.20;;;;;;5093447;28;20039;-60
2023/08/12 10:23:25;;;;;;;2.53;2.20;;;30.00;33.40;;;;;;5113269;28;20052;-59
2023/08/12 10:25:53;;;;;;;2.85;2.30;;;30.10;33.00;;;;;;5092326;28;20076;-60
2023/08/12 10:28:19;;;;;;;3.10;2.80;;;30.10;32.40;;;;;;5101253;28;20446;-60
2023/08/12 10:30:45;;;;;;;2.88;2.50;;;30.10;33.00;;;;;;5103044;28;20055;-60
2023/08/12 10:33:11;;;;;;;4.40;2.63;;;30.30;32.80;;;;;;5111925;28;20039;-60
2023/08/12 10:35:47;;;;;;;2.70;2.38;;;30.50;32.80;;;;;;5092663;28;20118;-60
2023/08/12 10:38:24;;;;;;;3.63;2.85;;;30.90;32.50;;;;;;5087057;28;20481;-60
2023/08/12 10:40:50;;;;;;;2.88;2.67;;;30.80;31.60;;;;;;5074109;28;21724;-60
2023/08/12 10:43:16;;;;;;;3.88;2.72;;;30.80;32.00;;;;;;5075611;28;20020;-60
2023/08/12 10:45:52;;;;;;;3.90;3.00;;;30.80;31.70;;;;;;5070663;28;20050;-60
2023/08/12 10:48:20;;;;;;;2.63;2.20;;;30.80;31.70;;;;;;5077714;28;20028;-59
2023/08/12 10:50:49;;;;;;;2.75;2.55;;;30.90;31.80;;;;;;5075421;28;20032;-60
2023/08/12 10:53:29;;;;;;;3.97;2.53;;;31.00;32.00;;;;;;5071573;28;20029;-59
2023/08/12 10:55:56;;;;;;;3.38;2.70;;;31.20;31.60;;;;;;5069281;28;20035;-61
2023/08/12 10:58:27;;;;;;;3.10;2.60;;;31.00;31.60;;;;;;5081856;28;20032;-60
2023/08/12 11:00:57;;;;;;;2.92;2.63;;;30.90;31.60;;;;;;5109583;28;20028;-60
2023/08/12 11:03:23;;;;;;;4.88;2.42;;;30.70;31.90;;;;;;5109799;28;20039;-59
2023/08/12 11:05:48;;;;;;;4.88;2.80;;;30.70;32.10;;;;;;5090235;28;20063;-60
2023/08/12 11:08:14;;;;;;;4.63;2.58;;;30.70;32.40;;;;;;5104558;28;20036;-59
2023/08/12 11:10:39;;;;;;;2.75;2.55;;;30.80;32.90;;;;;;5085669;28;20171;-60
2023/08/12 11:13:05;;;;;;;3.03;2.72;;;30.70;33.10;;;;;;5075565;28;20384;-56
2023/08/12 11:15:36;;;;;;;2.47;2.25;;;30.50;33.00;;;;;;5072481;28;20041;-60
2023/08/12 11:18:10;;;;;;;3.05;2.63;;;30.50;33.50;;;;;;5091738;28;20123;-60
2023/08/12 11:20:36;;;;;;;3.30;2.90;;;30.50;34.30;;;;;;5071253;28;20062;-60
2023/08/12 11:23:04;;;;;;;3.90;2.40;;;30.30;34.20;;;;;;5109470;28;20063;-60
2023/08/12 11:25:30;;;;;;;3.38;2.67;;;30.10;35.70;;;;;;5072233;28;20043;-60
2023/08/12 11:27:57;;;;;;;3.33;2.85;;;29.90;35.50;;;;;;5082740;28;20114;-60
2023/08/12 11:30:23;;;;;;;2.55;2.35;;;29.80;35.70;;;;;;5096287;28;20047;-60
2023/08/12 11:32:53;;;;;;;2.75;2.50;;;29.80;35.60;;;;;;5086471;28;20037;-60
2023/08/12 11:35:20;;;;;;;2.95;2.63;;;29.80;35.90;;;;;;5078097;28;20028;-59
2023/08/12 11:37:48;;;;;;;3.45;3.13;;;29.90;36.00;;;;;;5108568;28;20039;-59
2023/08/12 11:40:16;;;;;;;6.97;3.35;;;29.80;36.00;;;;;;5089173;28;20024;-59
2023/08/12 11:42:44;;;;;;;4.68;2.75;;;29.70;36.00;;;;;;5069987;28;20028;-60
2023/08/12 11:45:11;;;;;;;2.58;2.38;;;29.60;36.40;;;;;;5105245;28;20092;-60
2023/08/12 11:47:39;;;;;;;5.20;2.85;;;29.40;36.70;;;;;;5085033;28;20024;-60
2023/08/12 11:50:06;;;;;;;4.65;2.42;;;29.30;37.20;;;;;;5076072;28;20048;-58
2023/08/12 11:52:32;;;;;;;3.63;2.50;;;29.20;37.50;;;;;;5097911;28;20077;-60
2023/08/12 11:54:58;;;;;;;3.75;2.60;;;29.10;37.80;;;;;;5080102;28;20032;-61
2023/08/12 11:57:25;;;;;;;3.42;2.95;;;29.00;38.30;;;;;;5108211;28;20380;-60
2023/08/12 11:59:51;;;;;;;4.65;2.78;;;28.90;38.60;;;;;;5089368;28;20553;-60
2023/08/12 12:02:17;;;;;;;3.42;2.60;;;28.80;38.80;;;;;;5083510;28;20025;-60
2023/08/12 12:04:43;;;;;;;2.97;2.67;;;28.70;39.10;;;;;;5090428;28;20062;-60
2023/08/12 12:07:23;;;;;;;3.75;2.72;;;28.60;39.40;;;;;;5096098;28;20700;-60
2023/08/12 12:09:53;;;;;;;4.40;3.03;;;28.60;40.80;;;;;;5071675;28;20033;-60
2023/08/12 12:12:24;;;;;;;3.10;2.38;;;28.70;40.20;;;;;;5076710;28;20099;-60
2023/08/12 12:14:54;;;;;;;2.80;2.58;;;28.50;40.60;;;;;;5090615;28;20039;-60
2023/08/12 12:17:23;;;;;;;2.58;2.38;;;28.40;41.50;;;;;;5095928;28;20433;-60
2023/08/12 12:19:54;;;;;;;3.10;2.78;;;28.30;41.80;;;;;;5086980;28;20105;-60
2023/08/12 12:22:25;;;;;;;4.32;2.72;;;28.30;42.90;;;;;;5088192;28;20025;-60
2023/08/12 12:24:51;;;;;;;5.63;3.13;;;28.20;43.30;;;;;;5067534;28;20032;-51
2023/08/12 12:27:16;;;;;;;3.95;3.55;;;28.20;44.00;;;;;;5087471;28;20035;-52
2023/08/12 12:29:42;;;;;;;3.97;2.45;;;28.10;44.80;;;;;;5084739;28;20781;-52
2023/08/12 12:32:08;;;;;;;3.65;2.75;;;28.10;45.00;;;;;;5085729;28;20134;-55
2023/08/12 12:34:34;;;;;;;3.40;2.92;;;28.00;47.60;;;;;;5083111;28;20166;-54
2023/08/12 12:36:59;;;;;;;3.45;2.78;;;28.00;46.80;;;;;;5089899;28;20130;-53
2023/08/12 12:39:25;;;;;;;3.40;3.10;;;27.80;46.70;;;;;;5073227;28;20031;-54
2023/08/12 12:41:50;;;;;;;3.47;2.83;;;27.60;47.20;;;;;;5096604;28;20024;-54
2023/08/12 12:44:16;;;;;;;3.70;3.30;;;27.50;47.30;;;;;;5087762;28;20102;-53